Aeroporto :
LOGIN :

Iscrizione | Disclaimer

   EN    FR    IT 

 










Sommario :    VFR   VFR Marginale   IFR   IFR Intensivo   IFR Molto Intensivo
Visibilità : 
Base nubi : 
>= 8 km
>= 3000ft
5 / 8 km
1000 / 3000 ft
1500m / 5 km
500 / 1000 ft
800 / 1500m
200 / 500 ft
< 800m
< 200 ft
Simboli :   Temporali  Nebbia  Neve Forte  Precipitazioni Forti  Vento > 20 kt
SIGMETs :   Varie  Temporali  Ghiacco  Turbolenza  Onda orograficha  Ceneri Vulcaniche






- Altitudine del aeroporto : 600 ft
- Codice IATA : VIE


LOWW - Vienna Schwechat

ULTIMO METAR :
  • 221820Z 18003KT CAVOK 14/13 Q1022 NOSIG

METARs OBSOLETI :
  • 221750Z 18002KT CAVOK 16/13 Q1022 NOSIG
  • 221720Z 14002KT CAVOK 15/14 Q1022 NOSIG
  • 221650Z VRB01KT 9999 FEW020 SCT300 16/14 Q1022 NOSIG
  • 221620Z 05002KT 9999 FEW020 SCT300 16/13 Q1022 NOSIG
  • 221550Z VRB01KT 9999 FEW020 SCT300 18/14 Q1022 NOSIG

TAF TAF LOWW
Valido dal 22 a 18 ore il 24 a 00 ore UTC


221715Z 2218/2324 VRB02KT 8000 FEW020 TX20/2314Z TN11/2223Z
TEMPO 2220/2222 1500 BCFG SCT001
BECMG 2222/2224 0600 FG VV001
TEMPO 2300/2308 0300
BECMG 2308/2310 14010KT 4000 BR BKN003
BECMG 2311/2313 CAVOK
TEMPO 2313/2318 15015KT



MetMap, La meteo Aeronautica in un colpo d'occhio ! - Copyright ORBIFLY Dicembre 2007 - Disclaimer

ORBIFLY MET'MAP TEAM :

Programmazione e sviluppo : Alexandra Zaïnal
Concezione e sviluppo : Baudouin d'Aumeries
Co-Programmazione e sviluppo : Marc-Olivier Méhu
Supporto tecnico e logistico : Manuel Goepfert
Aiuto per la traduzione : Arnaldo La Scala

Contatto : metmap@orbifly.com




FONTI E CREDITI :

   NOAA